sensor_id;sensor_type;location;lat;lon;timestamp;P1;durP1;ratioP1;P2;durP2;ratioP2
52386;SDS011;38317;53.084;6.960;2022-10-16T00:01:04;3.05;;;0.93;;
52386;SDS011;38317;53.084;6.960;2022-10-16T00:03:40;2.60;;;0.88;;
52386;SDS011;38317;53.084;6.960;2022-10-16T00:06:07;3.25;;;1.00;;
52386;SDS011;38317;53.084;6.960;2022-10-16T00:08:34;3.53;;;0.80;;
52386;SDS011;38317;53.084;6.960;2022-10-16T00:11:04;5.25;;;1.42;;
52386;SDS011;38317;53.084;6.960;2022-10-16T00:13:33;3.53;;;0.98;;
52386;SDS011;38317;53.084;6.960;2022-10-16T00:15:59;1.98;;;0.80;;
52386;SDS011;38317;53.084;6.960;2022-10-16T00:18:26;4.53;;;1.10;;
52386;SDS011;38317;53.084;6.960;2022-10-16T00:20:53;2.67;;;0.82;;
52386;SDS011;38317;53.084;6.960;2022-10-16T00:23:19;3.53;;;1.00;;
52386;SDS011;38317;53.084;6.960;2022-10-16T00:25:54;4.63;;;1.00;;
52386;SDS011;38317;53.084;6.960;2022-10-16T00:28:21;2.65;;;0.90;;
52386;SDS011;38317;53.084;6.960;2022-10-16T00:30:46;4.38;;;1.40;;
52386;SDS011;38317;53.084;6.960;2022-10-16T00:33:12;3.83;;;1.15;;
52386;SDS011;38317;53.084;6.960;2022-10-16T00:35:38;7.63;;;0.82;;
52386;SDS011;38317;53.084;6.960;2022-10-16T00:38:03;4.32;;;1.00;;
52386;SDS011;38317;53.084;6.960;2022-10-16T00:40:29;4.35;;;0.95;;
52386;SDS011;38317;53.084;6.960;2022-10-16T00:42:56;3.33;;;0.77;;
52386;SDS011;38317;53.084;6.960;2022-10-16T00:45:21;3.92;;;0.80;;
52386;SDS011;38317;53.084;6.960;2022-10-16T00:47:47;2.95;;;0.80;;
52386;SDS011;38317;53.084;6.960;2022-10-16T00:50:24;1.83;;;0.70;;
52386;SDS011;38317;53.084;6.960;2022-10-16T00:52:54;2.97;;;0.60;;
52386;SDS011;38317;53.084;6.960;2022-10-16T00:55:22;3.47;;;0.90;;
52386;SDS011;38317;53.084;6.960;2022-10-16T00:57:48;2.88;;;0.70;;
52386;SDS011;38317;53.084;6.960;2022-10-16T01:00:26;2.83;;;0.70;;
52386;SDS011;38317;53.084;6.960;2022-10-16T01:02:55;3.38;;;0.85;;
52386;SDS011;38317;53.084;6.960;2022-10-16T01:05:23;3.42;;;0.80;;
52386;SDS011;38317;53.084;6.960;2022-10-16T01:12:51;2.15;;;0.70;;
52386;SDS011;38317;53.084;6.960;2022-10-16T01:15:25;3.00;;;0.80;;
52386;SDS011;38317;53.084;6.960;2022-10-16T01:28:30;4.00;;;0.90;;
52386;SDS011;38317;53.084;6.960;2022-10-16T01:31:01;4.57;;;0.82;;
52386;SDS011;38317;53.084;6.960;2022-10-16T01:33:44;2.45;;;0.60;;
52386;SDS011;38317;53.084;6.960;2022-10-16T01:36:16;1.50;;;0.77;;
52386;SDS011;38317;53.084;6.960;2022-10-16T01:38:48;2.47;;;0.82;;
52386;SDS011;38317;53.084;6.960;2022-10-16T01:41:19;3.22;;;0.98;;
52386;SDS011;38317;53.084;6.960;2022-10-16T01:43:53;4.05;;;0.88;;
52386;SDS011;38317;53.084;6.960;2022-10-16T01:46:26;5.65;;;1.00;;
52386;SDS011;38317;53.084;6.960;2022-10-16T01:48:53;3.25;;;1.10;;
52386;SDS011;38317;53.084;6.960;2022-10-16T01:51:20;3.42;;;0.80;;
52386;SDS011;38317;53.084;6.960;2022-10-16T01:53:49;6.40;;;0.90;;
52386;SDS011;38317;53.084;6.960;2022-10-16T01:56:18;4.50;;;1.40;;
52386;SDS011;38317;53.084;6.960;2022-10-16T01:58:57;3.63;;;1.10;;
52386;SDS011;38317;53.084;6.960;2022-10-16T02:01:40;3.78;;;1.05;;
52386;SDS011;38317;53.084;6.960;2022-10-16T02:04:14;2.55;;;0.98;;
52386;SDS011;38317;53.084;6.960;2022-10-16T02:06:48;5.60;;;1.15;;
52386;SDS011;38317;53.084;6.960;2022-10-16T02:09:17;3.45;;;1.10;;
52386;SDS011;38317;53.084;6.960;2022-10-16T02:11:43;3.78;;;1.02;;
52386;SDS011;38317;53.084;6.960;2022-10-16T02:14:10;4.35;;;1.05;;
52386;SDS011;38317;53.084;6.960;2022-10-16T02:16:41;6.45;;;2.03;;
52386;SDS011;38317;53.084;6.960;2022-10-16T02:19:11;4.75;;;1.60;;
52386;SDS011;38317;53.084;6.960;2022-10-16T02:21:40;2.55;;;1.10;;
52386;SDS011;38317;53.084;6.960;2022-10-16T02:29:25;3.70;;;1.05;;
52386;SDS011;38317;53.084;6.960;2022-10-16T02:32:01;2.83;;;1.00;;
52386;SDS011;38317;53.084;6.960;2022-10-16T02:34:30;3.55;;;1.20;;
52386;SDS011;38317;53.084;6.960;2022-10-16T02:36:58;3.40;;;0.98;;
52386;SDS011;38317;53.084;6.960;2022-10-16T02:39:27;3.03;;;1.30;;
52386;SDS011;38317;53.084;6.960;2022-10-16T02:41:53;3.80;;;1.10;;
52386;SDS011;38317;53.084;6.960;2022-10-16T02:44:19;4.03;;;1.17;;
52386;SDS011;38317;53.084;6.960;2022-10-16T02:46:45;2.70;;;1.10;;
52386;SDS011;38317;53.084;6.960;2022-10-16T02:49:11;3.42;;;1.00;;
52386;SDS011;38317;53.084;6.960;2022-10-16T02:51:37;3.65;;;1.42;;
52386;SDS011;38317;53.084;6.960;2022-10-16T02:54:02;2.58;;;1.10;;
52386;SDS011;38317;53.084;6.960;2022-10-16T02:56:29;1.60;;;0.88;;
52386;SDS011;38317;53.084;6.960;2022-10-16T02:58:56;2.83;;;1.17;;
52386;SDS011;38317;53.084;6.960;2022-10-16T03:01:22;4.55;;;1.23;;
52386;SDS011;38317;53.084;6.960;2022-10-16T03:03:48;4.68;;;1.08;;
52386;SDS011;38317;53.084;6.960;2022-10-16T03:06:13;4.97;;;1.20;;
52386;SDS011;38317;53.084;6.960;2022-10-16T03:08:39;2.22;;;0.95;;
52386;SDS011;38317;53.084;6.960;2022-10-16T03:11:05;8.45;;;1.63;;
52386;SDS011;38317;53.084;6.960;2022-10-16T03:13:30;3.70;;;1.40;;
52386;SDS011;38317;53.084;6.960;2022-10-16T03:15:56;2.78;;;0.95;;
52386;SDS011;38317;53.084;6.960;2022-10-16T03:18:22;2.58;;;0.98;;
52386;SDS011;38317;53.084;6.960;2022-10-16T03:20:48;2.28;;;0.77;;
52386;SDS011;38317;53.084;6.960;2022-10-16T03:23:13;2.15;;;0.80;;
52386;SDS011;38317;53.084;6.960;2022-10-16T03:25:39;2.45;;;1.00;;
52386;SDS011;38317;53.084;6.960;2022-10-16T03:28:05;2.20;;;0.90;;
52386;SDS011;38317;53.084;6.960;2022-10-16T03:30:31;7.07;;;1.05;;
52386;SDS011;38317;53.084;6.960;2022-10-16T03:32:57;2.15;;;1.05;;
52386;SDS011;38317;53.084;6.960;2022-10-16T03:35:23;3.03;;;0.95;;
52386;SDS011;38317;53.084;6.960;2022-10-16T03:37:49;4.22;;;0.90;;
52386;SDS011;38317;53.084;6.960;2022-10-16T03:40:15;2.45;;;1.10;;
52386;SDS011;38317;53.084;6.960;2022-10-16T03:42:42;2.88;;;0.90;;
52386;SDS011;38317;53.084;6.960;2022-10-16T03:45:09;2.83;;;0.80;;
52386;SDS011;38317;53.084;6.960;2022-10-16T03:47:35;2.88;;;1.05;;
52386;SDS011;38317;53.084;6.960;2022-10-16T03:50:01;1.77;;;1.02;;
52386;SDS011;38317;53.084;6.960;2022-10-16T03:52:27;2.40;;;1.20;;
52386;SDS011;38317;53.084;6.960;2022-10-16T03:54:53;2.83;;;0.95;;
52386;SDS011;38317;53.084;6.960;2022-10-16T03:57:18;2.35;;;0.82;;
52386;SDS011;38317;53.084;6.960;2022-10-16T03:59:46;2.50;;;0.88;;
52386;SDS011;38317;53.084;6.960;2022-10-16T04:02:11;1.33;;;0.60;;
52386;SDS011;38317;53.084;6.960;2022-10-16T04:04:38;2.25;;;1.15;;
52386;SDS011;38317;53.084;6.960;2022-10-16T04:07:04;2.45;;;1.10;;
52386;SDS011;38317;53.084;6.960;2022-10-16T04:09:29;2.33;;;0.85;;
52386;SDS011;38317;53.084;6.960;2022-10-16T04:11:55;3.70;;;0.95;;
52386;SDS011;38317;53.084;6.960;2022-10-16T04:14:21;2.50;;;0.80;;
52386;SDS011;38317;53.084;6.960;2022-10-16T04:16:46;3.83;;;1.20;;
52386;SDS011;38317;53.084;6.960;2022-10-16T04:19:12;3.42;;;1.08;;
52386;SDS011;38317;53.084;6.960;2022-10-16T04:21:38;2.65;;;0.98;;
52386;SDS011;38317;53.084;6.960;2022-10-16T04:24:04;2.80;;;0.85;;
52386;SDS011;38317;53.084;6.960;2022-10-16T04:26:30;2.25;;;0.88;;
52386;SDS011;38317;53.084;6.960;2022-10-16T04:28:56;2.13;;;0.77;;
52386;SDS011;38317;53.084;6.960;2022-10-16T04:31:21;2.15;;;0.93;;
52386;SDS011;38317;53.084;6.960;2022-10-16T04:33:47;2.03;;;0.70;;
52386;SDS011;38317;53.084;6.960;2022-10-16T04:36:13;2.47;;;0.98;;
52386;SDS011;38317;53.084;6.960;2022-10-16T04:38:39;3.28;;;0.98;;
52386;SDS011;38317;53.084;6.960;2022-10-16T04:41:05;1.83;;;0.80;;
52386;SDS011;38317;53.084;6.960;2022-10-16T04:43:31;1.90;;;0.70;;
52386;SDS011;38317;53.084;6.960;2022-10-16T04:45:57;3.05;;;1.25;;
52386;SDS011;38317;53.084;6.960;2022-10-16T04:48:23;3.03;;;1.10;;
52386;SDS011;38317;53.084;6.960;2022-10-16T04:50:49;1.48;;;0.75;;
52386;SDS011;38317;53.084;6.960;2022-10-16T04:53:15;3.88;;;1.20;;
52386;SDS011;38317;53.084;6.960;2022-10-16T04:55:41;2.38;;;0.88;;
52386;SDS011;38317;53.084;6.960;2022-10-16T04:58:07;2.97;;;1.02;;
52386;SDS011;38317;53.084;6.960;2022-10-16T05:00:33;3.47;;;1.40;;
52386;SDS011;38317;53.084;6.960;2022-10-16T05:02:59;2.15;;;0.98;;
52386;SDS011;38317;53.084;6.960;2022-10-16T05:05:26;2.72;;;1.05;;
52386;SDS011;38317;53.084;6.960;2022-10-16T05:07:53;4.15;;;1.00;;
52386;SDS011;38317;53.084;6.960;2022-10-16T05:10:19;2.40;;;1.30;;
52386;SDS011;38317;53.084;6.960;2022-10-16T05:12:44;3.65;;;1.35;;
52386;SDS011;38317;53.084;6.960;2022-10-16T05:15:11;2.25;;;1.05;;
52386;SDS011;38317;53.084;6.960;2022-10-16T05:17:37;1.65;;;0.88;;
52386;SDS011;38317;53.084;6.960;2022-10-16T05:20:03;3.25;;;1.10;;
52386;SDS011;38317;53.084;6.960;2022-10-16T05:22:29;2.72;;;1.02;;
52386;SDS011;38317;53.084;6.960;2022-10-16T05:24:55;1.58;;;0.90;;
52386;SDS011;38317;53.084;6.960;2022-10-16T05:27:21;3.08;;;1.35;;
52386;SDS011;38317;53.084;6.960;2022-10-16T05:29:47;2.90;;;1.20;;
52386;SDS011;38317;53.084;6.960;2022-10-16T05:32:14;3.75;;;1.38;;
52386;SDS011;38317;53.084;6.960;2022-10-16T05:34:41;2.83;;;1.15;;
52386;SDS011;38317;53.084;6.960;2022-10-16T05:37:08;3.42;;;1.38;;
52386;SDS011;38317;53.084;6.960;2022-10-16T05:39:34;2.60;;;1.10;;
52386;SDS011;38317;53.084;6.960;2022-10-16T05:42:00;4.03;;;1.15;;
52386;SDS011;38317;53.084;6.960;2022-10-16T05:44:25;3.47;;;1.08;;
52386;SDS011;38317;53.084;6.960;2022-10-16T05:46:51;3.08;;;1.23;;
52386;SDS011;38317;53.084;6.960;2022-10-16T05:49:17;3.63;;;1.48;;
52386;SDS011;38317;53.084;6.960;2022-10-16T05:51:42;2.25;;;1.10;;
52386;SDS011;38317;53.084;6.960;2022-10-16T05:54:08;3.28;;;1.38;;
52386;SDS011;38317;53.084;6.960;2022-10-16T05:56:34;3.83;;;1.40;;
52386;SDS011;38317;53.084;6.960;2022-10-16T05:59:00;2.95;;;1.30;;
52386;SDS011;38317;53.084;6.960;2022-10-16T06:01:25;5.70;;;1.30;;
52386;SDS011;38317;53.084;6.960;2022-10-16T06:03:51;4.25;;;1.10;;
52386;SDS011;38317;53.084;6.960;2022-10-16T06:06:19;3.47;;;1.45;;
52386;SDS011;38317;53.084;6.960;2022-10-16T06:08:48;4.78;;;1.40;;
52386;SDS011;38317;53.084;6.960;2022-10-16T06:11:15;2.42;;;1.20;;
52386;SDS011;38317;53.084;6.960;2022-10-16T06:13:43;2.53;;;1.08;;
52386;SDS011;38317;53.084;6.960;2022-10-16T06:16:11;3.40;;;1.60;;
52386;SDS011;38317;53.084;6.960;2022-10-16T06:18:37;3.35;;;1.25;;
52386;SDS011;38317;53.084;6.960;2022-10-16T06:21:11;3.65;;;1.20;;
52386;SDS011;38317;53.084;6.960;2022-10-16T06:23:39;2.90;;;1.50;;
52386;SDS011;38317;53.084;6.960;2022-10-16T06:26:08;2.50;;;1.38;;
52386;SDS011;38317;53.084;6.960;2022-10-16T06:28:36;3.85;;;1.50;;
52386;SDS011;38317;53.084;6.960;2022-10-16T06:31:03;4.68;;;1.20;;
52386;SDS011;38317;53.084;6.960;2022-10-16T06:33:29;4.72;;;1.45;;
52386;SDS011;38317;53.084;6.960;2022-10-16T06:36:12;3.95;;;1.40;;
52386;SDS011;38317;53.084;6.960;2022-10-16T06:38:40;5.20;;;1.27;;
52386;SDS011;38317;53.084;6.960;2022-10-16T06:41:06;2.95;;;1.20;;
52386;SDS011;38317;53.084;6.960;2022-10-16T06:43:33;3.97;;;1.33;;
52386;SDS011;38317;53.084;6.960;2022-10-16T06:46:02;4.43;;;1.10;;
52386;SDS011;38317;53.084;6.960;2022-10-16T06:48:30;3.80;;;1.27;;
52386;SDS011;38317;53.084;6.960;2022-10-16T06:50:59;5.50;;;1.13;;
52386;SDS011;38317;53.084;6.960;2022-10-16T06:53:28;3.47;;;1.20;;
52386;SDS011;38317;53.084;6.960;2022-10-16T06:55:56;5.18;;;1.13;;
52386;SDS011;38317;53.084;6.960;2022-10-16T06:58:22;4.63;;;1.30;;
52386;SDS011;38317;53.084;6.960;2022-10-16T07:00:48;3.78;;;1.20;;
52386;SDS011;38317;53.084;6.960;2022-10-16T07:03:19;3.75;;;1.10;;
52386;SDS011;38317;53.084;6.960;2022-10-16T07:05:46;2.75;;;1.13;;
52386;SDS011;38317;53.084;6.960;2022-10-16T07:08:11;2.53;;;0.90;;
52386;SDS011;38317;53.084;6.960;2022-10-16T07:10:37;3.05;;;1.00;;
52386;SDS011;38317;53.084;6.960;2022-10-16T07:13:03;2.80;;;1.00;;
52386;SDS011;38317;53.084;6.960;2022-10-16T07:15:29;4.38;;;1.20;;
52386;SDS011;38317;53.084;6.960;2022-10-16T07:17:55;2.83;;;0.98;;
52386;SDS011;38317;53.084;6.960;2022-10-16T07:20:20;2.47;;;0.88;;
52386;SDS011;38317;53.084;6.960;2022-10-16T07:22:46;2.35;;;0.88;;
52386;SDS011;38317;53.084;6.960;2022-10-16T07:25:12;4.63;;;1.55;;
52386;SDS011;38317;53.084;6.960;2022-10-16T07:27:37;4.10;;;1.13;;
52386;SDS011;38317;53.084;6.960;2022-10-16T07:30:03;3.20;;;1.00;;
52386;SDS011;38317;53.084;6.960;2022-10-16T07:32:30;2.85;;;0.90;;
52386;SDS011;38317;53.084;6.960;2022-10-16T07:34:56;4.38;;;0.80;;
52386;SDS011;38317;53.084;6.960;2022-10-16T07:37:22;2.80;;;1.15;;
52386;SDS011;38317;53.084;6.960;2022-10-16T07:39:48;3.38;;;0.90;;
52386;SDS011;38317;53.084;6.960;2022-10-16T07:42:14;3.50;;;0.70;;
52386;SDS011;38317;53.084;6.960;2022-10-16T07:44:40;3.03;;;1.10;;
52386;SDS011;38317;53.084;6.960;2022-10-16T07:47:06;3.03;;;0.98;;
52386;SDS011;38317;53.084;6.960;2022-10-16T07:49:32;2.38;;;1.00;;
52386;SDS011;38317;53.084;6.960;2022-10-16T07:51:57;2.45;;;1.00;;
52386;SDS011;38317;53.084;6.960;2022-10-16T07:54:23;6.40;;;0.98;;
52386;SDS011;38317;53.084;6.960;2022-10-16T07:56:49;3.40;;;0.80;;
52386;SDS011;38317;53.084;6.960;2022-10-16T07:59:14;3.70;;;1.20;;
52386;SDS011;38317;53.084;6.960;2022-10-16T08:01:40;2.65;;;0.90;;
52386;SDS011;38317;53.084;6.960;2022-10-16T08:04:09;5.43;;;0.80;;
52386;SDS011;38317;53.084;6.960;2022-10-16T08:06:36;1.70;;;0.63;;
52386;SDS011;38317;53.084;6.960;2022-10-16T08:09:04;4.63;;;0.88;;
52386;SDS011;38317;53.084;6.960;2022-10-16T08:11:30;4.05;;;0.95;;
52386;SDS011;38317;53.084;6.960;2022-10-16T08:13:56;4.97;;;1.42;;
52386;SDS011;38317;53.084;6.960;2022-10-16T08:16:22;3.10;;;1.10;;
52386;SDS011;38317;53.084;6.960;2022-10-16T08:18:48;1.95;;;0.90;;
52386;SDS011;38317;53.084;6.960;2022-10-16T08:21:17;2.58;;;1.00;;
52386;SDS011;38317;53.084;6.960;2022-10-16T08:23:44;2.38;;;0.90;;
52386;SDS011;38317;53.084;6.960;2022-10-16T08:26:11;4.90;;;1.50;;
52386;SDS011;38317;53.084;6.960;2022-10-16T08:28:37;2.88;;;0.90;;
52386;SDS011;38317;53.084;6.960;2022-10-16T08:31:07;4.18;;;0.95;;
52386;SDS011;38317;53.084;6.960;2022-10-16T08:33:37;5.15;;;1.00;;
52386;SDS011;38317;53.084;6.960;2022-10-16T08:36:05;3.67;;;0.90;;
52386;SDS011;38317;53.084;6.960;2022-10-16T08:38:31;3.45;;;0.80;;
52386;SDS011;38317;53.084;6.960;2022-10-16T08:41:21;2.40;;;1.00;;
52386;SDS011;38317;53.084;6.960;2022-10-16T08:46:59;2.80;;;0.80;;
52386;SDS011;38317;53.084;6.960;2022-10-16T08:49:37;1.58;;;0.70;;
52386;SDS011;38317;53.084;6.960;2022-10-16T08:52:08;3.92;;;0.73;;
52386;SDS011;38317;53.084;6.960;2022-10-16T08:54:37;2.53;;;0.70;;
52386;SDS011;38317;53.084;6.960;2022-10-16T08:57:19;2.05;;;0.70;;
52386;SDS011;38317;53.084;6.960;2022-10-16T08:59:45;2.92;;;0.60;;
52386;SDS011;38317;53.084;6.960;2022-10-16T09:02:24;4.45;;;0.98;;
52386;SDS011;38317;53.084;6.960;2022-10-16T09:13:09;2.30;;;0.43;;
52386;SDS011;38317;53.084;6.960;2022-10-16T09:23:40;1.88;;;0.40;;
52386;SDS011;38317;53.084;6.960;2022-10-16T09:26:09;2.55;;;0.50;;
52386;SDS011;38317;53.084;6.960;2022-10-16T09:28:37;2.42;;;0.80;;
52386;SDS011;38317;53.084;6.960;2022-10-16T09:31:03;2.65;;;0.60;;
52386;SDS011;38317;53.084;6.960;2022-10-16T09:33:30;2.85;;;0.60;;
52386;SDS011;38317;53.084;6.960;2022-10-16T09:36:00;3.80;;;0.88;;
52386;SDS011;38317;53.084;6.960;2022-10-16T09:38:32;4.47;;;1.50;;
52386;SDS011;38317;53.084;6.960;2022-10-16T09:41:01;4.07;;;1.00;;
52386;SDS011;38317;53.084;6.960;2022-10-16T09:43:56;4.22;;;0.70;;
52386;SDS011;38317;53.084;6.960;2022-10-16T09:48:58;3.55;;;0.60;;
52386;SDS011;38317;53.084;6.960;2022-10-16T09:51:27;2.08;;;0.45;;
52386;SDS011;38317;53.084;6.960;2022-10-16T09:56:35;6.55;;;1.13;;
52386;SDS011;38317;53.084;6.960;2022-10-16T09:59:11;5.65;;;0.82;;
52386;SDS011;38317;53.084;6.960;2022-10-16T10:01:48;4.20;;;0.75;;
52386;SDS011;38317;53.084;6.960;2022-10-16T10:04:20;5.63;;;0.98;;
52386;SDS011;38317;53.084;6.960;2022-10-16T10:06:51;6.20;;;0.80;;
52386;SDS011;38317;53.084;6.960;2022-10-16T10:09:20;6.15;;;1.30;;
52386;SDS011;38317;53.084;6.960;2022-10-16T10:11:50;5.00;;;0.60;;
52386;SDS011;38317;53.084;6.960;2022-10-16T10:14:50;4.65;;;0.82;;
52386;SDS011;38317;53.084;6.960;2022-10-16T10:17:15;3.58;;;0.80;;
52386;SDS011;38317;53.084;6.960;2022-10-16T10:19:54;5.70;;;1.20;;
52386;SDS011;38317;53.084;6.960;2022-10-16T10:27:39;5.45;;;0.70;;
52386;SDS011;38317;53.084;6.960;2022-10-16T10:30:18;9.43;;;1.10;;
52386;SDS011;38317;53.084;6.960;2022-10-16T10:46:32;5.80;;;0.70;;
52386;SDS011;38317;53.084;6.960;2022-10-16T10:51:32;6.22;;;0.68;;
52386;SDS011;38317;53.084;6.960;2022-10-16T11:05:10;4.68;;;0.68;;
52386;SDS011;38317;53.084;6.960;2022-10-16T11:07:45;4.43;;;0.65;;
52386;SDS011;38317;53.084;6.960;2022-10-16T11:10:24;6.18;;;0.90;;
52386;SDS011;38317;53.084;6.960;2022-10-16T11:13:17;6.72;;;1.17;;
52386;SDS011;38317;53.084;6.960;2022-10-16T11:15:57;3.78;;;0.70;;
52386;SDS011;38317;53.084;6.960;2022-10-16T11:26:33;7.07;;;1.02;;
52386;SDS011;38317;53.084;6.960;2022-10-16T11:29:01;6.45;;;0.60;;
52386;SDS011;38317;53.084;6.960;2022-10-16T11:31:37;6.20;;;0.83;;
52386;SDS011;38317;53.084;6.960;2022-10-16T11:34:12;7.70;;;1.40;;
52386;SDS011;38317;53.084;6.960;2022-10-16T11:36:55;3.97;;;0.70;;
52386;SDS011;38317;53.084;6.960;2022-10-16T11:39:29;6.40;;;0.80;;
52386;SDS011;38317;53.084;6.960;2022-10-16T11:42:01;3.53;;;0.75;;
52386;SDS011;38317;53.084;6.960;2022-10-16T11:44:41;4.00;;;0.60;;
52386;SDS011;38317;53.084;6.960;2022-10-16T11:50:20;5.05;;;1.13;;
52386;SDS011;38317;53.084;6.960;2022-10-16T11:55:40;3.67;;;0.68;;
52386;SDS011;38317;53.084;6.960;2022-10-16T11:58:16;4.78;;;0.80;;
52386;SDS011;38317;53.084;6.960;2022-10-16T12:08:40;3.45;;;0.82;;
52386;SDS011;38317;53.084;6.960;2022-10-16T12:11:19;4.03;;;0.55;;
52386;SDS011;38317;53.084;6.960;2022-10-16T12:13:49;3.92;;;0.70;;
52386;SDS011;38317;53.084;6.960;2022-10-16T12:18:41;4.60;;;0.80;;
52386;SDS011;38317;53.084;6.960;2022-10-16T12:21:09;6.07;;;0.88;;
52386;SDS011;38317;53.084;6.960;2022-10-16T12:23:46;4.88;;;0.90;;
52386;SDS011;38317;53.084;6.960;2022-10-16T12:26:23;4.80;;;0.70;;
52386;SDS011;38317;53.084;6.960;2022-10-16T12:28:54;5.60;;;0.80;;
52386;SDS011;38317;53.084;6.960;2022-10-16T12:31:21;4.30;;;0.70;;
52386;SDS011;38317;53.084;6.960;2022-10-16T12:33:57;7.35;;;1.38;;
52386;SDS011;38317;53.084;6.960;2022-10-16T12:36:34;5.18;;;0.82;;
52386;SDS011;38317;53.084;6.960;2022-10-16T12:39:00;5.20;;;0.80;;
52386;SDS011;38317;53.084;6.960;2022-10-16T12:43:54;7.72;;;0.85;;
52386;SDS011;38317;53.084;6.960;2022-10-16T12:46:33;5.65;;;0.90;;
52386;SDS011;38317;53.084;6.960;2022-10-16T12:51:37;5.65;;;0.77;;
52386;SDS011;38317;53.084;6.960;2022-10-16T13:10:52;5.07;;;0.70;;
52386;SDS011;38317;53.084;6.960;2022-10-16T13:27:45;7.82;;;1.05;;
52386;SDS011;38317;53.084;6.960;2022-10-16T13:30:21;4.00;;;0.60;;
52386;SDS011;38317;53.084;6.960;2022-10-16T13:32:50;9.98;;;0.70;;
52386;SDS011;38317;53.084;6.960;2022-10-16T13:35:24;6.70;;;0.80;;
52386;SDS011;38317;53.084;6.960;2022-10-16T13:38:02;7.07;;;1.00;;
52386;SDS011;38317;53.084;6.960;2022-10-16T13:43:24;4.57;;;0.60;;
52386;SDS011;38317;53.084;6.960;2022-10-16T13:46:13;6.00;;;0.80;;
52386;SDS011;38317;53.084;6.960;2022-10-16T13:48:40;3.33;;;0.52;;
52386;SDS011;38317;53.084;6.960;2022-10-16T13:51:12;4.25;;;0.50;;
52386;SDS011;38317;53.084;6.960;2022-10-16T13:53:42;4.18;;;0.57;;
52386;SDS011;38317;53.084;6.960;2022-10-16T13:56:15;10.95;;;0.82;;
52386;SDS011;38317;53.084;6.960;2022-10-16T13:58:59;6.55;;;1.02;;
52386;SDS011;38317;53.084;6.960;2022-10-16T14:01:31;4.82;;;0.70;;
52386;SDS011;38317;53.084;6.960;2022-10-16T14:04:11;6.13;;;0.88;;
52386;SDS011;38317;53.084;6.960;2022-10-16T14:06:46;3.65;;;0.60;;
52386;SDS011;38317;53.084;6.960;2022-10-16T14:11:52;4.03;;;0.80;;
52386;SDS011;38317;53.084;6.960;2022-10-16T14:14:29;3.88;;;0.95;;
52386;SDS011;38317;53.084;6.960;2022-10-16T14:17:13;7.40;;;0.70;;
52386;SDS011;38317;53.084;6.960;2022-10-16T14:19:51;6.35;;;0.60;;
52386;SDS011;38317;53.084;6.960;2022-10-16T14:22:30;6.00;;;0.60;;
52386;SDS011;38317;53.084;6.960;2022-10-16T14:25:08;4.80;;;0.75;;
52386;SDS011;38317;53.084;6.960;2022-10-16T14:27:45;4.50;;;0.60;;
52386;SDS011;38317;53.084;6.960;2022-10-16T14:30:22;4.72;;;0.50;;
52386;SDS011;38317;53.084;6.960;2022-10-16T14:32:56;3.25;;;0.40;;
52386;SDS011;38317;53.084;6.960;2022-10-16T14:35:31;7.03;;;1.20;;
52386;SDS011;38317;53.084;6.960;2022-10-16T14:38:00;4.35;;;0.82;;
52386;SDS011;38317;53.084;6.960;2022-10-16T14:40:29;5.18;;;0.77;;
52386;SDS011;38317;53.084;6.960;2022-10-16T14:42:56;6.90;;;0.80;;
52386;SDS011;38317;53.084;6.960;2022-10-16T14:45:32;2.78;;;0.50;;
52386;SDS011;38317;53.084;6.960;2022-10-16T14:48:03;2.15;;;0.40;;
52386;SDS011;38317;53.084;6.960;2022-10-16T14:50:31;3.70;;;0.88;;
52386;SDS011;38317;53.084;6.960;2022-10-16T14:52:57;5.90;;;1.20;;
52386;SDS011;38317;53.084;6.960;2022-10-16T14:55:24;6.72;;;0.77;;
52386;SDS011;38317;53.084;6.960;2022-10-16T14:57:50;5.63;;;0.80;;
52386;SDS011;38317;53.084;6.960;2022-10-16T15:00:20;5.93;;;0.93;;
52386;SDS011;38317;53.084;6.960;2022-10-16T15:02:48;2.00;;;0.40;;
52386;SDS011;38317;53.084;6.960;2022-10-16T15:05:22;3.10;;;0.40;;
52386;SDS011;38317;53.084;6.960;2022-10-16T15:07:51;4.78;;;0.85;;
52386;SDS011;38317;53.084;6.960;2022-10-16T15:10:19;4.53;;;0.90;;
52386;SDS011;38317;53.084;6.960;2022-10-16T15:12:46;3.05;;;0.50;;
52386;SDS011;38317;53.084;6.960;2022-10-16T15:17:48;5.38;;;0.77;;
52386;SDS011;38317;53.084;6.960;2022-10-16T15:20:19;5.97;;;0.63;;
52386;SDS011;38317;53.084;6.960;2022-10-16T15:22:44;4.38;;;0.55;;
52386;SDS011;38317;53.084;6.960;2022-10-16T15:28:04;3.60;;;0.57;;
52386;SDS011;38317;53.084;6.960;2022-10-16T15:30:32;6.93;;;1.10;;
52386;SDS011;38317;53.084;6.960;2022-10-16T15:32:58;3.83;;;0.52;;
52386;SDS011;38317;53.084;6.960;2022-10-16T15:35:24;6.15;;;0.60;;
52386;SDS011;38317;53.084;6.960;2022-10-16T15:37:50;7.53;;;1.38;;
52386;SDS011;38317;53.084;6.960;2022-10-16T15:40:16;4.43;;;0.52;;
52386;SDS011;38317;53.084;6.960;2022-10-16T15:42:43;3.35;;;0.50;;
52386;SDS011;38317;53.084;6.960;2022-10-16T15:45:09;3.45;;;0.80;;
52386;SDS011;38317;53.084;6.960;2022-10-16T15:47:36;4.85;;;0.80;;
52386;SDS011;38317;53.084;6.960;2022-10-16T15:50:02;5.05;;;0.80;;
52386;SDS011;38317;53.084;6.960;2022-10-16T15:52:29;2.65;;;0.50;;
52386;SDS011;38317;53.084;6.960;2022-10-16T15:54:56;6.88;;;1.20;;
52386;SDS011;38317;53.084;6.960;2022-10-16T15:57:23;3.88;;;0.60;;
52386;SDS011;38317;53.084;6.960;2022-10-16T15:59:49;2.97;;;0.50;;
52386;SDS011;38317;53.084;6.960;2022-10-16T16:02:15;3.28;;;0.47;;
52386;SDS011;38317;53.084;6.960;2022-10-16T16:04:41;2.45;;;0.50;;
52386;SDS011;38317;53.084;6.960;2022-10-16T16:07:07;7.53;;;1.90;;
52386;SDS011;38317;53.084;6.960;2022-10-16T16:09:33;5.60;;;0.82;;
52386;SDS011;38317;53.084;6.960;2022-10-16T16:11:59;3.30;;;0.65;;
52386;SDS011;38317;53.084;6.960;2022-10-16T16:14:26;6.47;;;1.00;;
52386;SDS011;38317;53.084;6.960;2022-10-16T16:16:55;4.35;;;0.93;;
52386;SDS011;38317;53.084;6.960;2022-10-16T16:19:21;4.90;;;1.00;;
52386;SDS011;38317;53.084;6.960;2022-10-16T16:21:47;8.93;;;1.98;;
52386;SDS011;38317;53.084;6.960;2022-10-16T16:24:13;10.65;;;3.00;;
52386;SDS011;38317;53.084;6.960;2022-10-16T16:26:39;10.23;;;2.50;;
52386;SDS011;38317;53.084;6.960;2022-10-16T16:29:12;12.65;;;2.72;;
52386;SDS011;38317;53.084;6.960;2022-10-16T16:31:40;9.38;;;2.60;;
52386;SDS011;38317;53.084;6.960;2022-10-16T16:34:06;8.02;;;2.47;;
52386;SDS011;38317;53.084;6.960;2022-10-16T16:36:33;9.18;;;2.95;;
52386;SDS011;38317;53.084;6.960;2022-10-16T16:38:59;8.40;;;2.65;;
52386;SDS011;38317;53.084;6.960;2022-10-16T16:41:26;8.32;;;2.45;;
52386;SDS011;38317;53.084;6.960;2022-10-16T16:43:55;6.28;;;1.80;;
52386;SDS011;38317;53.084;6.960;2022-10-16T16:46:25;9.07;;;3.40;;
52386;SDS011;38317;53.084;6.960;2022-10-16T16:48:51;12.95;;;4.97;;
52386;SDS011;38317;53.084;6.960;2022-10-16T16:51:20;16.05;;;5.90;;
52386;SDS011;38317;53.084;6.960;2022-10-16T16:53:50;14.32;;;4.65;;
52386;SDS011;38317;53.084;6.960;2022-10-16T16:56:17;8.77;;;2.60;;
52386;SDS011;38317;53.084;6.960;2022-10-16T16:58:50;11.60;;;3.40;;
52386;SDS011;38317;53.084;6.960;2022-10-16T17:01:18;9.65;;;4.50;;
52386;SDS011;38317;53.084;6.960;2022-10-16T17:03:44;14.07;;;3.78;;
52386;SDS011;38317;53.084;6.960;2022-10-16T17:06:11;6.85;;;2.22;;
52386;SDS011;38317;53.084;6.960;2022-10-16T17:08:38;5.97;;;1.80;;
52386;SDS011;38317;53.084;6.960;2022-10-16T17:11:04;7.68;;;2.00;;
52386;SDS011;38317;53.084;6.960;2022-10-16T17:13:32;6.03;;;1.35;;
52386;SDS011;38317;53.084;6.960;2022-10-16T17:16:01;9.00;;;1.45;;
52386;SDS011;38317;53.084;6.960;2022-10-16T17:18:28;4.55;;;1.23;;
52386;SDS011;38317;53.084;6.960;2022-10-16T17:20:54;4.30;;;1.10;;
52386;SDS011;38317;53.084;6.960;2022-10-16T17:23:19;6.55;;;1.90;;
52386;SDS011;38317;53.084;6.960;2022-10-16T17:25:45;18.15;;;8.45;;
52386;SDS011;38317;53.084;6.960;2022-10-16T17:28:12;15.93;;;5.70;;